sensor_id;sensor_type;location;lat;lon;timestamp;temperature;humidity
34099;DHT22;20374;49.474;10.944;2024-02-14T00:00:07;1.60;99.90
34099;DHT22;20374;49.474;10.944;2024-02-14T00:02:35;1.60;99.90
34099;DHT22;20374;49.474;10.944;2024-02-14T00:05:02;1.60;99.90
34099;DHT22;20374;49.474;10.944;2024-02-14T00:07:29;1.60;99.90
34099;DHT22;20374;49.474;10.944;2024-02-14T00:09:54;1.60;99.90
34099;DHT22;20374;49.474;10.944;2024-02-14T00:12:21;1.60;99.90
34099;DHT22;20374;49.474;10.944;2024-02-14T00:14:47;1.60;99.90
34099;DHT22;20374;49.474;10.944;2024-02-14T00:17:14;1.60;99.90
34099;DHT22;20374;49.474;10.944;2024-02-14T00:19:40;1.60;99.90
34099;DHT22;20374;49.474;10.944;2024-02-14T00:22:06;1.60;99.90
34099;DHT22;20374;49.474;10.944;2024-02-14T00:24:32;1.50;99.90
34099;DHT22;20374;49.474;10.944;2024-02-14T00:26:58;1.50;99.90
34099;DHT22;20374;49.474;10.944;2024-02-14T00:29:26;1.50;99.90
34099;DHT22;20374;49.474;10.944;2024-02-14T00:31:52;1.50;99.90
34099;DHT22;20374;49.474;10.944;2024-02-14T00:34:18;1.50;99.90
34099;DHT22;20374;49.474;10.944;2024-02-14T00:36:44;1.50;99.90
34099;DHT22;20374;49.474;10.944;2024-02-14T00:39:10;1.50;99.90
34099;DHT22;20374;49.474;10.944;2024-02-14T00:41:36;1.50;99.90
34099;DHT22;20374;49.474;10.944;2024-02-14T00:44:02;1.60;99.90
34099;DHT22;20374;49.474;10.944;2024-02-14T00:46:29;1.60;99.90
34099;DHT22;20374;49.474;10.944;2024-02-14T00:48:56;1.60;99.90
34099;DHT22;20374;49.474;10.944;2024-02-14T00:51:22;1.60;99.90
34099;DHT22;20374;49.474;10.944;2024-02-14T00:53:48;1.60;99.90
34099;DHT22;20374;49.474;10.944;2024-02-14T00:56:14;1.60;99.90
34099;DHT22;20374;49.474;10.944;2024-02-14T00:58:40;1.60;99.90
34099;DHT22;20374;49.474;10.944;2024-02-14T01:01:06;1.40;99.90
34099;DHT22;20374;49.474;10.944;2024-02-14T01:03:32;1.50;99.90
34099;DHT22;20374;49.474;10.944;2024-02-14T01:05:58;1.50;99.90
34099;DHT22;20374;49.474;10.944;2024-02-14T01:08:24;1.40;99.90
34099;DHT22;20374;49.474;10.944;2024-02-14T01:10:50;1.40;99.90
34099;DHT22;20374;49.474;10.944;2024-02-14T01:13:18;1.40;99.90
34099;DHT22;20374;49.474;10.944;2024-02-14T01:15:46;1.40;99.90
34099;DHT22;20374;49.474;10.944;2024-02-14T01:18:12;1.40;99.90
34099;DHT22;20374;49.474;10.944;2024-02-14T01:20:38;1.50;99.90
34099;DHT22;20374;49.474;10.944;2024-02-14T01:23:04;1.50;99.90
34099;DHT22;20374;49.474;10.944;2024-02-14T01:25:30;1.50;99.90
34099;DHT22;20374;49.474;10.944;2024-02-14T01:27:56;1.50;99.90
34099;DHT22;20374;49.474;10.944;2024-02-14T01:30:22;1.50;99.90
34099;DHT22;20374;49.474;10.944;2024-02-14T01:32:53;1.50;99.90
34099;DHT22;20374;49.474;10.944;2024-02-14T01:35:19;1.50;99.90
34099;DHT22;20374;49.474;10.944;2024-02-14T01:37:45;1.50;99.90
34099;DHT22;20374;49.474;10.944;2024-02-14T01:40:12;1.50;99.90
34099;DHT22;20374;49.474;10.944;2024-02-14T01:42:38;1.50;99.90
34099;DHT22;20374;49.474;10.944;2024-02-14T01:45:04;1.50;99.90
34099;DHT22;20374;49.474;10.944;2024-02-14T01:47:31;1.50;99.90
34099;DHT22;20374;49.474;10.944;2024-02-14T01:49:58;1.50;99.90
34099;DHT22;20374;49.474;10.944;2024-02-14T01:52:24;1.50;99.90
34099;DHT22;20374;49.474;10.944;2024-02-14T01:54:51;1.50;99.90
34099;DHT22;20374;49.474;10.944;2024-02-14T01:57:18;1.50;99.90
34099;DHT22;20374;49.474;10.944;2024-02-14T01:59:44;1.50;99.90
34099;DHT22;20374;49.474;10.944;2024-02-14T02:02:11;1.40;99.90
34099;DHT22;20374;49.474;10.944;2024-02-14T02:04:37;1.50;99.90
34099;DHT22;20374;49.474;10.944;2024-02-14T02:07:04;1.60;99.90
34099;DHT22;20374;49.474;10.944;2024-02-14T02:09:33;1.50;99.90
34099;DHT22;20374;49.474;10.944;2024-02-14T02:11:59;1.50;99.90
34099;DHT22;20374;49.474;10.944;2024-02-14T02:14:26;1.50;99.90
34099;DHT22;20374;49.474;10.944;2024-02-14T02:16:52;1.50;99.90
34099;DHT22;20374;49.474;10.944;2024-02-14T02:19:19;1.40;99.90
34099;DHT22;20374;49.474;10.944;2024-02-14T02:21:45;1.50;99.90
34099;DHT22;20374;49.474;10.944;2024-02-14T02:24:13;1.50;99.90
34099;DHT22;20374;49.474;10.944;2024-02-14T02:26:39;1.50;99.90
34099;DHT22;20374;49.474;10.944;2024-02-14T02:29:05;1.40;99.90
34099;DHT22;20374;49.474;10.944;2024-02-14T02:31:32;1.50;99.90
34099;DHT22;20374;49.474;10.944;2024-02-14T02:33:58;1.40;99.90
34099;DHT22;20374;49.474;10.944;2024-02-14T02:36:24;1.40;99.90
34099;DHT22;20374;49.474;10.944;2024-02-14T02:38:50;1.40;99.90
34099;DHT22;20374;49.474;10.944;2024-02-14T02:41:17;1.40;99.90
34099;DHT22;20374;49.474;10.944;2024-02-14T02:43:43;1.50;99.90
34099;DHT22;20374;49.474;10.944;2024-02-14T02:46:09;1.50;99.90
34099;DHT22;20374;49.474;10.944;2024-02-14T02:48:35;1.50;99.90
34099;DHT22;20374;49.474;10.944;2024-02-14T02:51:01;1.50;99.90
34099;DHT22;20374;49.474;10.944;2024-02-14T02:53:27;1.50;99.90
34099;DHT22;20374;49.474;10.944;2024-02-14T02:55:53;1.60;99.90
34099;DHT22;20374;49.474;10.944;2024-02-14T02:58:20;1.70;99.90
34099;DHT22;20374;49.474;10.944;2024-02-14T03:00:47;1.60;99.90
34099;DHT22;20374;49.474;10.944;2024-02-14T03:03:15;1.60;99.90
34099;DHT22;20374;49.474;10.944;2024-02-14T03:05:42;1.50;99.90
34099;DHT22;20374;49.474;10.944;2024-02-14T03:08:13;1.60;99.90
34099;DHT22;20374;49.474;10.944;2024-02-14T03:10:41;1.60;99.90
34099;DHT22;20374;49.474;10.944;2024-02-14T03:13:07;1.60;99.90
34099;DHT22;20374;49.474;10.944;2024-02-14T03:15:39;1.50;99.90
34099;DHT22;20374;49.474;10.944;2024-02-14T03:18:05;1.50;99.90
34099;DHT22;20374;49.474;10.944;2024-02-14T03:20:34;1.50;99.90
34099;DHT22;20374;49.474;10.944;2024-02-14T03:23:01;1.50;99.90
34099;DHT22;20374;49.474;10.944;2024-02-14T03:25:26;1.40;99.90
34099;DHT22;20374;49.474;10.944;2024-02-14T03:27:52;1.30;99.90
34099;DHT22;20374;49.474;10.944;2024-02-14T03:30:19;1.30;99.90
34099;DHT22;20374;49.474;10.944;2024-02-14T03:32:46;1.30;99.90
34099;DHT22;20374;49.474;10.944;2024-02-14T03:35:13;1.30;99.90
34099;DHT22;20374;49.474;10.944;2024-02-14T03:37:42;1.20;99.90
34099;DHT22;20374;49.474;10.944;2024-02-14T03:40:10;1.20;99.90
34099;DHT22;20374;49.474;10.944;2024-02-14T03:42:36;1.20;99.90
34099;DHT22;20374;49.474;10.944;2024-02-14T03:45:06;1.20;99.90
34099;DHT22;20374;49.474;10.944;2024-02-14T03:47:33;1.10;99.90
34099;DHT22;20374;49.474;10.944;2024-02-14T03:49:59;1.10;99.90
34099;DHT22;20374;49.474;10.944;2024-02-14T03:52:25;1.10;99.90
34099;DHT22;20374;49.474;10.944;2024-02-14T03:54:52;0.90;99.90
34099;DHT22;20374;49.474;10.944;2024-02-14T03:57:18;0.90;99.90
34099;DHT22;20374;49.474;10.944;2024-02-14T03:59:44;0.80;99.90
34099;DHT22;20374;49.474;10.944;2024-02-14T04:02:10;0.80;99.90
34099;DHT22;20374;49.474;10.944;2024-02-14T04:04:37;0.70;99.90
34099;DHT22;20374;49.474;10.944;2024-02-14T04:07:04;0.60;99.90
34099;DHT22;20374;49.474;10.944;2024-02-14T04:09:32;0.60;99.90
34099;DHT22;20374;49.474;10.944;2024-02-14T04:11:58;0.50;99.90
34099;DHT22;20374;49.474;10.944;2024-02-14T04:14:24;0.50;99.90
34099;DHT22;20374;49.474;10.944;2024-02-14T04:16:50;0.60;99.90
34099;DHT22;20374;49.474;10.944;2024-02-14T04:19:16;0.60;99.90
34099;DHT22;20374;49.474;10.944;2024-02-14T04:21:43;0.80;99.90
34099;DHT22;20374;49.474;10.944;2024-02-14T04:24:09;0.80;99.90
34099;DHT22;20374;49.474;10.944;2024-02-14T04:26:35;0.80;99.90
34099;DHT22;20374;49.474;10.944;2024-02-14T04:29:02;1.00;99.90
34099;DHT22;20374;49.474;10.944;2024-02-14T04:31:28;1.10;99.90
34099;DHT22;20374;49.474;10.944;2024-02-14T04:33:56;1.10;99.90
34099;DHT22;20374;49.474;10.944;2024-02-14T04:36:22;1.20;99.90
34099;DHT22;20374;49.474;10.944;2024-02-14T04:38:51;1.30;99.90
34099;DHT22;20374;49.474;10.944;2024-02-14T04:41:17;1.40;99.90
34099;DHT22;20374;49.474;10.944;2024-02-14T04:43:44;1.40;99.90
34099;DHT22;20374;49.474;10.944;2024-02-14T04:46:10;1.50;99.90
34099;DHT22;20374;49.474;10.944;2024-02-14T04:48:36;1.50;99.90
34099;DHT22;20374;49.474;10.944;2024-02-14T04:51:05;1.50;99.90
34099;DHT22;20374;49.474;10.944;2024-02-14T04:53:31;1.50;99.90
34099;DHT22;20374;49.474;10.944;2024-02-14T04:55:57;1.50;99.90
34099;DHT22;20374;49.474;10.944;2024-02-14T04:58:26;1.50;99.90
34099;DHT22;20374;49.474;10.944;2024-02-14T05:00:53;1.50;99.90
34099;DHT22;20374;49.474;10.944;2024-02-14T05:03:20;1.60;99.90
34099;DHT22;20374;49.474;10.944;2024-02-14T05:05:47;1.60;99.90
34099;DHT22;20374;49.474;10.944;2024-02-14T05:08:13;1.60;99.90
34099;DHT22;20374;49.474;10.944;2024-02-14T05:10:39;1.70;99.90
34099;DHT22;20374;49.474;10.944;2024-02-14T05:13:05;1.80;99.90
34099;DHT22;20374;49.474;10.944;2024-02-14T05:15:31;1.70;99.90
34099;DHT22;20374;49.474;10.944;2024-02-14T05:17:57;1.80;99.90
34099;DHT22;20374;49.474;10.944;2024-02-14T05:20:23;1.80;99.90
34099;DHT22;20374;49.474;10.944;2024-02-14T05:22:49;1.80;99.90
34099;DHT22;20374;49.474;10.944;2024-02-14T05:25:15;1.90;99.90
34099;DHT22;20374;49.474;10.944;2024-02-14T05:27:41;1.90;99.90
34099;DHT22;20374;49.474;10.944;2024-02-14T05:30:08;1.90;99.90
34099;DHT22;20374;49.474;10.944;2024-02-14T05:32:35;1.90;99.90
34099;DHT22;20374;49.474;10.944;2024-02-14T05:35:04;2.00;99.90
34099;DHT22;20374;49.474;10.944;2024-02-14T05:37:31;2.10;99.90
34099;DHT22;20374;49.474;10.944;2024-02-14T05:39:58;2.10;99.90
34099;DHT22;20374;49.474;10.944;2024-02-14T05:42:24;2.10;99.90
34099;DHT22;20374;49.474;10.944;2024-02-14T05:44:50;2.10;99.90
34099;DHT22;20374;49.474;10.944;2024-02-14T05:47:17;2.20;99.90
34099;DHT22;20374;49.474;10.944;2024-02-14T05:49:44;2.40;99.90
34099;DHT22;20374;49.474;10.944;2024-02-14T05:52:11;2.40;99.90
34099;DHT22;20374;49.474;10.944;2024-02-14T05:54:37;2.40;99.90
34099;DHT22;20374;49.474;10.944;2024-02-14T05:57:03;2.40;99.90
34099;DHT22;20374;49.474;10.944;2024-02-14T05:59:32;2.50;99.90
34099;DHT22;20374;49.474;10.944;2024-02-14T06:01:58;2.40;99.90
34099;DHT22;20374;49.474;10.944;2024-02-14T06:04:24;2.40;99.90
34099;DHT22;20374;49.474;10.944;2024-02-14T06:06:51;2.40;99.90
34099;DHT22;20374;49.474;10.944;2024-02-14T06:09:17;2.40;99.90
34099;DHT22;20374;49.474;10.944;2024-02-14T06:11:43;2.40;99.90
34099;DHT22;20374;49.474;10.944;2024-02-14T06:14:10;2.50;99.90
34099;DHT22;20374;49.474;10.944;2024-02-14T06:16:36;2.40;99.90
34099;DHT22;20374;49.474;10.944;2024-02-14T06:19:02;2.50;99.90
34099;DHT22;20374;49.474;10.944;2024-02-14T06:21:33;2.50;99.90
34099;DHT22;20374;49.474;10.944;2024-02-14T06:24:00;2.60;99.90
34099;DHT22;20374;49.474;10.944;2024-02-14T06:26:26;2.70;99.90
34099;DHT22;20374;49.474;10.944;2024-02-14T06:28:52;2.80;99.90
34099;DHT22;20374;49.474;10.944;2024-02-14T06:31:22;2.80;99.90
34099;DHT22;20374;49.474;10.944;2024-02-14T06:33:48;2.90;99.90
34099;DHT22;20374;49.474;10.944;2024-02-14T06:36:14;2.90;99.90
34099;DHT22;20374;49.474;10.944;2024-02-14T06:38:40;2.90;99.90
34099;DHT22;20374;49.474;10.944;2024-02-14T06:41:07;2.90;99.90
34099;DHT22;20374;49.474;10.944;2024-02-14T06:43:33;3.00;99.90
34099;DHT22;20374;49.474;10.944;2024-02-14T06:45:59;2.90;99.90
34099;DHT22;20374;49.474;10.944;2024-02-14T06:48:25;3.00;99.90
34099;DHT22;20374;49.474;10.944;2024-02-14T06:50:51;3.00;99.90
34099;DHT22;20374;49.474;10.944;2024-02-14T06:53:17;3.00;99.90
34099;DHT22;20374;49.474;10.944;2024-02-14T06:55:43;3.10;99.90
34099;DHT22;20374;49.474;10.944;2024-02-14T06:58:09;3.20;99.90
34099;DHT22;20374;49.474;10.944;2024-02-14T07:00:35;3.20;99.90
34099;DHT22;20374;49.474;10.944;2024-02-14T07:03:02;3.20;99.90
34099;DHT22;20374;49.474;10.944;2024-02-14T07:05:27;3.40;99.90
34099;DHT22;20374;49.474;10.944;2024-02-14T07:07:55;3.60;99.90
34099;DHT22;20374;49.474;10.944;2024-02-14T07:10:21;3.80;99.90
34099;DHT22;20374;49.474;10.944;2024-02-14T07:12:47;4.00;99.90
34099;DHT22;20374;49.474;10.944;2024-02-14T07:15:13;4.30;99.90
34099;DHT22;20374;49.474;10.944;2024-02-14T07:17:40;4.10;99.90
34099;DHT22;20374;49.474;10.944;2024-02-14T07:20:06;4.20;99.90
34099;DHT22;20374;49.474;10.944;2024-02-14T07:22:38;4.20;99.90
34099;DHT22;20374;49.474;10.944;2024-02-14T07:25:04;4.20;99.90
34099;DHT22;20374;49.474;10.944;2024-02-14T07:27:31;4.20;99.90
34099;DHT22;20374;49.474;10.944;2024-02-14T07:29:57;4.20;99.90
34099;DHT22;20374;49.474;10.944;2024-02-14T07:32:23;4.30;99.90
34099;DHT22;20374;49.474;10.944;2024-02-14T07:34:49;4.30;99.90
34099;DHT22;20374;49.474;10.944;2024-02-14T07:37:15;4.40;99.90
34099;DHT22;20374;49.474;10.944;2024-02-14T07:39:43;4.60;99.90
34099;DHT22;20374;49.474;10.944;2024-02-14T07:42:13;4.60;99.90
34099;DHT22;20374;49.474;10.944;2024-02-14T07:44:41;4.70;99.90
34099;DHT22;20374;49.474;10.944;2024-02-14T07:47:07;4.80;99.90
34099;DHT22;20374;49.474;10.944;2024-02-14T07:49:33;4.80;99.90
34099;DHT22;20374;49.474;10.944;2024-02-14T07:51:59;4.80;99.90
34099;DHT22;20374;49.474;10.944;2024-02-14T07:54:26;4.80;99.90
34099;DHT22;20374;49.474;10.944;2024-02-14T07:56:51;4.90;99.90
34099;DHT22;20374;49.474;10.944;2024-02-14T07:59:17;4.90;99.90
34099;DHT22;20374;49.474;10.944;2024-02-14T08:01:43;5.00;99.90
34099;DHT22;20374;49.474;10.944;2024-02-14T08:04:09;5.10;99.90
34099;DHT22;20374;49.474;10.944;2024-02-14T08:06:35;5.30;99.90
34099;DHT22;20374;49.474;10.944;2024-02-14T08:09:01;5.40;99.90
34099;DHT22;20374;49.474;10.944;2024-02-14T08:11:32;5.40;99.90
34099;DHT22;20374;49.474;10.944;2024-02-14T08:13:58;5.40;99.90
34099;DHT22;20374;49.474;10.944;2024-02-14T08:16:25;5.40;99.90
34099;DHT22;20374;49.474;10.944;2024-02-14T08:18:51;5.40;99.90
34099;DHT22;20374;49.474;10.944;2024-02-14T08:21:25;5.40;99.90
34099;DHT22;20374;49.474;10.944;2024-02-14T08:23:52;5.40;99.90
34099;DHT22;20374;49.474;10.944;2024-02-14T08:26:19;5.40;99.90
34099;DHT22;20374;49.474;10.944;2024-02-14T08:28:45;5.50;99.90
34099;DHT22;20374;49.474;10.944;2024-02-14T08:31:13;5.50;99.90
34099;DHT22;20374;49.474;10.944;2024-02-14T08:33:39;5.50;99.90
34099;DHT22;20374;49.474;10.944;2024-02-14T08:36:05;5.50;99.90
34099;DHT22;20374;49.474;10.944;2024-02-14T08:38:35;5.50;99.90
34099;DHT22;20374;49.474;10.944;2024-02-14T08:41:02;5.50;99.90
34099;DHT22;20374;49.474;10.944;2024-02-14T08:43:28;5.60;99.90
34099;DHT22;20374;49.474;10.944;2024-02-14T08:45:55;5.70;99.90
34099;DHT22;20374;49.474;10.944;2024-02-14T08:48:21;5.80;99.90
34099;DHT22;20374;49.474;10.944;2024-02-14T08:50:47;5.80;99.90
34099;DHT22;20374;49.474;10.944;2024-02-14T08:53:13;5.90;99.90
34099;DHT22;20374;49.474;10.944;2024-02-14T08:55:40;6.00;99.90
34099;DHT22;20374;49.474;10.944;2024-02-14T08:58:06;6.10;99.90
34099;DHT22;20374;49.474;10.944;2024-02-14T09:00:32;6.10;99.90
34099;DHT22;20374;49.474;10.944;2024-02-14T09:03:01;6.20;99.90
34099;DHT22;20374;49.474;10.944;2024-02-14T09:05:28;6.40;99.90
34099;DHT22;20374;49.474;10.944;2024-02-14T09:07:54;6.60;99.90
34099;DHT22;20374;49.474;10.944;2024-02-14T09:10:21;6.70;99.90
34099;DHT22;20374;49.474;10.944;2024-02-14T09:12:47;6.80;99.90
34099;DHT22;20374;49.474;10.944;2024-02-14T09:15:14;7.00;99.90
34099;DHT22;20374;49.474;10.944;2024-02-14T09:17:40;7.00;99.90
34099;DHT22;20374;49.474;10.944;2024-02-14T09:20:08;7.10;99.90
34099;DHT22;20374;49.474;10.944;2024-02-14T09:22:38;7.30;99.90
34099;DHT22;20374;49.474;10.944;2024-02-14T09:25:12;7.40;99.90
34099;DHT22;20374;49.474;10.944;2024-02-14T09:27:39;7.50;99.90
34099;DHT22;20374;49.474;10.944;2024-02-14T09:30:07;7.70;99.90
34099;DHT22;20374;49.474;10.944;2024-02-14T09:32:33;7.70;99.90
34099;DHT22;20374;49.474;10.944;2024-02-14T09:35:00;7.80;99.90
34099;DHT22;20374;49.474;10.944;2024-02-14T09:37:26;7.90;99.90
34099;DHT22;20374;49.474;10.944;2024-02-14T09:39:52;7.80;99.90
34099;DHT22;20374;49.474;10.944;2024-02-14T09:42:23;7.90;99.90
34099;DHT22;20374;49.474;10.944;2024-02-14T09:44:58;8.00;99.90
34099;DHT22;20374;49.474;10.944;2024-02-14T09:47:24;8.10;99.90
34099;DHT22;20374;49.474;10.944;2024-02-14T09:49:52;8.30;99.90
34099;DHT22;20374;49.474;10.944;2024-02-14T09:52:19;8.30;99.90
34099;DHT22;20374;49.474;10.944;2024-02-14T09:54:46;8.40;99.90
34099;DHT22;20374;49.474;10.944;2024-02-14T09:57:13;8.50;99.90
34099;DHT22;20374;49.474;10.944;2024-02-14T09:59:41;8.50;99.90
34099;DHT22;20374;49.474;10.944;2024-02-14T10:02:08;8.60;99.90
34099;DHT22;20374;49.474;10.944;2024-02-14T10:04:36;8.60;99.90
34099;DHT22;20374;49.474;10.944;2024-02-14T10:07:04;8.60;99.90
34099;DHT22;20374;49.474;10.944;2024-02-14T10:09:39;8.60;99.90
34099;DHT22;20374;49.474;10.944;2024-02-14T10:12:05;8.60;99.90
34099;DHT22;20374;49.474;10.944;2024-02-14T10:14:31;8.60;99.90
34099;DHT22;20374;49.474;10.944;2024-02-14T10:16:57;8.70;99.90
34099;DHT22;20374;49.474;10.944;2024-02-14T10:19:23;8.80;99.90
34099;DHT22;20374;49.474;10.944;2024-02-14T10:21:57;8.80;99.90
34099;DHT22;20374;49.474;10.944;2024-02-14T10:24:27;8.80;99.90
34099;DHT22;20374;49.474;10.944;2024-02-14T10:26:53;9.00;99.90
34099;DHT22;20374;49.474;10.944;2024-02-14T10:29:20;9.00;99.90
34099;DHT22;20374;49.474;10.944;2024-02-14T10:31:48;9.10;99.90
34099;DHT22;20374;49.474;10.944;2024-02-14T10:34:15;9.40;99.90
34099;DHT22;20374;49.474;10.944;2024-02-14T10:36:43;9.40;99.90
34099;DHT22;20374;49.474;10.944;2024-02-14T10:39:11;9.60;99.90
34099;DHT22;20374;49.474;10.944;2024-02-14T10:41:37;9.70;99.90
34099;DHT22;20374;49.474;10.944;2024-02-14T10:44:04;9.70;99.90
34099;DHT22;20374;49.474;10.944;2024-02-14T10:47:09;9.80;99.90
34099;DHT22;20374;49.474;10.944;2024-02-14T10:53:29;9.80;99.90
34099;DHT22;20374;49.474;10.944;2024-02-14T10:56:22;9.70;99.90
34099;DHT22;20374;49.474;10.944;2024-02-14T10:59:20;9.70;99.90
34099;DHT22;20374;49.474;10.944;2024-02-14T11:05:20;9.60;99.90
34099;DHT22;20374;49.474;10.944;2024-02-14T11:08:18;9.60;99.90
34099;DHT22;20374;49.474;10.944;2024-02-14T11:10:56;9.60;99.90
34099;DHT22;20374;49.474;10.944;2024-02-14T11:13:52;9.60;99.90
34099;DHT22;20374;49.474;10.944;2024-02-14T11:16:51;9.50;99.90
34099;DHT22;20374;49.474;10.944;2024-02-14T11:19:44;9.50;99.90
34099;DHT22;20374;49.474;10.944;2024-02-14T11:22:12;9.50;99.90
34099;DHT22;20374;49.474;10.944;2024-02-14T11:24:41;9.60;99.90
34099;DHT22;20374;49.474;10.944;2024-02-14T11:27:11;9.70;99.90
34099;DHT22;20374;49.474;10.944;2024-02-14T11:29:39;9.60;99.90
34099;DHT22;20374;49.474;10.944;2024-02-14T11:32:24;9.60;99.90
34099;DHT22;20374;49.474;10.944;2024-02-14T11:35:00;9.80;99.90
34099;DHT22;20374;49.474;10.944;2024-02-14T11:37:54;10.10;99.90
34099;DHT22;20374;49.474;10.944;2024-02-14T11:40:41;10.20;99.90
34099;DHT22;20374;49.474;10.944;2024-02-14T11:43:18;10.50;99.90
34099;DHT22;20374;49.474;10.944;2024-02-14T11:46:23;10.60;99.90
34099;DHT22;20374;49.474;10.944;2024-02-14T11:49:05;10.70;99.90
34099;DHT22;20374;49.474;10.944;2024-02-14T11:51:42;10.70;99.90
34099;DHT22;20374;49.474;10.944;2024-02-14T11:54:12;11.00;99.90
34099;DHT22;20374;49.474;10.944;2024-02-14T12:00:09;11.10;99.90
34099;DHT22;20374;49.474;10.944;2024-02-14T12:02:35;11.20;99.90
34099;DHT22;20374;49.474;10.944;2024-02-14T12:05:01;11.20;99.90
34099;DHT22;20374;49.474;10.944;2024-02-14T12:07:31;11.20;99.90
34099;DHT22;20374;49.474;10.944;2024-02-14T12:10:39;11.10;99.90
34099;DHT22;20374;49.474;10.944;2024-02-14T12:13:36;11.00;99.90
34099;DHT22;20374;49.474;10.944;2024-02-14T12:16:03;10.80;99.90
34099;DHT22;20374;49.474;10.944;2024-02-14T12:18:32;10.90;99.90
34099;DHT22;20374;49.474;10.944;2024-02-14T12:21:04;10.90;99.90
34099;DHT22;20374;49.474;10.944;2024-02-14T12:24:35;10.80;99.90
34099;DHT22;20374;49.474;10.944;2024-02-14T12:27:25;10.80;99.90
34099;DHT22;20374;49.474;10.944;2024-02-14T12:29:51;10.80;99.90
34099;DHT22;20374;49.474;10.944;2024-02-14T12:35:44;10.90;99.90
34099;DHT22;20374;49.474;10.944;2024-02-14T12:38:11;11.00;99.90
34099;DHT22;20374;49.474;10.944;2024-02-14T12:40:38;11.00;99.90
34099;DHT22;20374;49.474;10.944;2024-02-14T12:43:04;11.00;99.90
34099;DHT22;20374;49.474;10.944;2024-02-14T12:45:31;11.00;99.90
34099;DHT22;20374;49.474;10.944;2024-02-14T12:47:57;11.10;99.90
34099;DHT22;20374;49.474;10.944;2024-02-14T12:50:23;11.10;99.90
34099;DHT22;20374;49.474;10.944;2024-02-14T12:52:49;10.90;99.90
34099;DHT22;20374;49.474;10.944;2024-02-14T12:55:15;10.90;99.90
34099;DHT22;20374;49.474;10.944;2024-02-14T12:57:41;11.00;99.90
34099;DHT22;20374;49.474;10.944;2024-02-14T13:00:07;11.10;99.90
34099;DHT22;20374;49.474;10.944;2024-02-14T13:02:37;11.20;99.90
34099;DHT22;20374;49.474;10.944;2024-02-14T13:05:04;11.30;99.90
34099;DHT22;20374;49.474;10.944;2024-02-14T13:07:34;11.50;99.90
34099;DHT22;20374;49.474;10.944;2024-02-14T13:10:00;11.60;99.90
34099;DHT22;20374;49.474;10.944;2024-02-14T13:12:26;11.90;99.90
34099;DHT22;20374;49.474;10.944;2024-02-14T13:14:52;12.10;99.90
34099;DHT22;20374;49.474;10.944;2024-02-14T13:17:19;12.20;99.90
34099;DHT22;20374;49.474;10.944;2024-02-14T13:19:45;12.20;99.90
34099;DHT22;20374;49.474;10.944;2024-02-14T13:22:11;12.10;99.90
34099;DHT22;20374;49.474;10.944;2024-02-14T13:24:37;11.80;99.90
34099;DHT22;20374;49.474;10.944;2024-02-14T13:27:04;11.60;99.90
34099;DHT22;20374;49.474;10.944;2024-02-14T13:29:30;11.40;99.90
34099;DHT22;20374;49.474;10.944;2024-02-14T13:31:56;11.40;99.90
34099;DHT22;20374;49.474;10.944;2024-02-14T13:34:22;11.30;99.90
34099;DHT22;20374;49.474;10.944;2024-02-14T13:36:49;11.30;99.90
34099;DHT22;20374;49.474;10.944;2024-02-14T13:39:16;11.20;99.90
34099;DHT22;20374;49.474;10.944;2024-02-14T13:42:08;11.10;99.90
34099;DHT22;20374;49.474;10.944;2024-02-14T13:44:53;11.00;99.90
34099;DHT22;20374;49.474;10.944;2024-02-14T13:47:20;10.80;99.90
34099;DHT22;20374;49.474;10.944;2024-02-14T13:49:46;10.70;99.90
34099;DHT22;20374;49.474;10.944;2024-02-14T13:52:12;10.60;99.90
34099;DHT22;20374;49.474;10.944;2024-02-14T13:54:38;10.70;99.90
34099;DHT22;20374;49.474;10.944;2024-02-14T13:57:04;10.60;99.90
34099;DHT22;20374;49.474;10.944;2024-02-14T13:59:30;10.60;99.90
34099;DHT22;20374;49.474;10.944;2024-02-14T14:01:57;10.40;99.90
34099;DHT22;20374;49.474;10.944;2024-02-14T14:04:23;10.30;99.90
34099;DHT22;20374;49.474;10.944;2024-02-14T14:06:51;10.30;99.90
34099;DHT22;20374;49.474;10.944;2024-02-14T14:09:18;10.30;99.90
34099;DHT22;20374;49.474;10.944;2024-02-14T14:11:49;10.30;99.90
34099;DHT22;20374;49.474;10.944;2024-02-14T14:14:20;10.40;99.90
34099;DHT22;20374;49.474;10.944;2024-02-14T14:16:47;10.50;99.90
34099;DHT22;20374;49.474;10.944;2024-02-14T14:19:13;10.60;99.90
34099;DHT22;20374;49.474;10.944;2024-02-14T14:21:41;10.50;99.90
34099;DHT22;20374;49.474;10.944;2024-02-14T14:24:07;10.60;99.90
34099;DHT22;20374;49.474;10.944;2024-02-14T14:26:33;10.60;99.90
34099;DHT22;20374;49.474;10.944;2024-02-14T14:29:01;10.70;99.90
34099;DHT22;20374;49.474;10.944;2024-02-14T14:31:27;10.80;99.90
34099;DHT22;20374;49.474;10.944;2024-02-14T14:33:53;10.80;99.90
34099;DHT22;20374;49.474;10.944;2024-02-14T14:36:19;10.70;99.90
34099;DHT22;20374;49.474;10.944;2024-02-14T14:38:45;10.60;99.90
34099;DHT22;20374;49.474;10.944;2024-02-14T14:41:12;10.50;99.90
34099;DHT22;20374;49.474;10.944;2024-02-14T14:43:39;10.50;99.90
34099;DHT22;20374;49.474;10.944;2024-02-14T14:46:05;10.50;99.90
34099;DHT22;20374;49.474;10.944;2024-02-14T14:48:31;10.50;99.90
34099;DHT22;20374;49.474;10.944;2024-02-14T14:50:57;10.40;99.90
34099;DHT22;20374;49.474;10.944;2024-02-14T14:53:23;10.40;99.90
34099;DHT22;20374;49.474;10.944;2024-02-14T14:58:16;10.40;99.90
34099;DHT22;20374;49.474;10.944;2024-02-14T15:00:43;10.40;99.90
34099;DHT22;20374;49.474;10.944;2024-02-14T15:03:09;10.40;99.90
34099;DHT22;20374;49.474;10.944;2024-02-14T15:05:37;10.40;99.90
34099;DHT22;20374;49.474;10.944;2024-02-14T15:08:04;10.40;99.90
34099;DHT22;20374;49.474;10.944;2024-02-14T15:10:31;10.50;99.90
34099;DHT22;20374;49.474;10.944;2024-02-14T15:12:57;10.50;99.90
34099;DHT22;20374;49.474;10.944;2024-02-14T15:15:23;10.50;99.90
34099;DHT22;20374;49.474;10.944;2024-02-14T15:17:50;10.60;99.90
34099;DHT22;20374;49.474;10.944;2024-02-14T15:20:18;10.70;99.90
34099;DHT22;20374;49.474;10.944;2024-02-14T15:22:44;10.80;99.90
34099;DHT22;20374;49.474;10.944;2024-02-14T15:25:10;10.80;99.90
34099;DHT22;20374;49.474;10.944;2024-02-14T15:27:36;10.80;99.90
34099;DHT22;20374;49.474;10.944;2024-02-14T15:30:07;10.80;99.90
34099;DHT22;20374;49.474;10.944;2024-02-14T15:36:01;10.70;99.90
34099;DHT22;20374;49.474;10.944;2024-02-14T15:38:27;10.60;99.90
34099;DHT22;20374;49.474;10.944;2024-02-14T15:40:54;10.60;99.90
34099;DHT22;20374;49.474;10.944;2024-02-14T15:43:27;10.60;99.90
34099;DHT22;20374;49.474;10.944;2024-02-14T15:45:57;10.50;99.90
34099;DHT22;20374;49.474;10.944;2024-02-14T15:48:24;10.50;99.90
34099;DHT22;20374;49.474;10.944;2024-02-14T15:50:56;10.50;99.90
34099;DHT22;20374;49.474;10.944;2024-02-14T15:53:22;10.50;99.90